createdAt,value
2023-03-06T00:02:01.482Z,3.90
2023-03-06T00:04:27.891Z,3.50
2023-03-06T00:06:54.672Z,3.30
2023-03-06T00:09:21.001Z,3.58
2023-03-06T00:11:53.326Z,4.40
2023-03-06T00:14:19.751Z,3.97
2023-03-06T00:16:46.131Z,3.70
2023-03-06T00:19:12.521Z,4.22
2023-03-06T00:21:41.423Z,4.13
2023-03-06T00:24:07.987Z,4.22
2023-03-06T00:26:35.842Z,3.83
2023-03-06T00:29:02.457Z,3.70
2023-03-06T00:31:29.119Z,4.25
2023-03-06T00:33:55.588Z,3.42
2023-03-06T00:36:22.000Z,4.38
2023-03-06T00:38:48.374Z,4.30
2023-03-06T00:41:14.805Z,4.10
2023-03-06T00:43:41.315Z,4.40
2023-03-06T00:46:08.035Z,4.22
2023-03-06T00:48:34.932Z,4.57
2023-03-06T00:51:01.653Z,4.43
2023-03-06T00:53:28.161Z,4.18
2023-03-06T00:55:54.518Z,4.38
2023-03-06T00:58:20.930Z,4.18
2023-03-06T01:00:47.496Z,4.68
2023-03-06T01:03:13.876Z,4.85
2023-03-06T01:05:40.781Z,3.40
2023-03-06T01:08:08.711Z,4.28
2023-03-06T01:10:39.001Z,4.07
2023-03-06T01:13:05.722Z,4.82
2023-03-06T01:15:32.545Z,4.65
2023-03-06T01:17:59.022Z,4.43
2023-03-06T01:20:25.504Z,4.60
2023-03-06T01:22:51.915Z,3.88
2023-03-06T01:25:18.408Z,4.53
2023-03-06T01:27:44.802Z,4.60
2023-03-06T01:30:11.852Z,4.07
2023-03-06T01:32:38.438Z,4.82
2023-03-06T01:35:05.442Z,4.80
2023-03-06T01:37:32.345Z,4.20
2023-03-06T01:39:58.715Z,4.82
2023-03-06T01:42:25.274Z,4.93
2023-03-06T01:45:13.258Z,5.35
2023-03-06T01:47:39.749Z,4.47
2023-03-06T01:50:10.223Z,5.68
2023-03-06T01:52:43.606Z,6.05
2023-03-06T01:55:14.736Z,5.18
2023-03-06T01:57:45.131Z,5.40
2023-03-06T02:00:17.970Z,6.53
2023-03-06T02:02:52.762Z,5.72
2023-03-06T02:05:19.956Z,6.70
2023-03-06T02:07:47.369Z,6.07
2023-03-06T02:10:15.402Z,5.90
2023-03-06T02:12:43.680Z,5.35
2023-03-06T02:15:12.179Z,6.65
2023-03-06T02:17:39.272Z,6.60
2023-03-06T02:20:08.558Z,5.93
2023-03-06T02:22:45.856Z,6.03
2023-03-06T02:25:43.517Z,5.85
2023-03-06T02:28:20.599Z,5.68
2023-03-06T02:33:18.183Z,6.10
2023-03-06T02:36:15.479Z,5.57
2023-03-06T02:38:49.963Z,5.55
2023-03-06T02:41:16.798Z,5.72
2023-03-06T02:43:45.170Z,5.95
2023-03-06T02:46:11.805Z,6.47
2023-03-06T02:48:38.296Z,6.63
2023-03-06T02:51:04.896Z,6.28
2023-03-06T02:53:31.273Z,6.15
2023-03-06T02:55:57.634Z,7.30
2023-03-06T02:58:23.995Z,6.50
2023-03-06T03:00:50.725Z,5.88
2023-03-06T03:03:17.714Z,7.25
2023-03-06T03:05:44.240Z,6.50
2023-03-06T03:08:10.685Z,7.05
2023-03-06T03:10:37.067Z,6.68
2023-03-06T03:13:03.474Z,6.97
2023-03-06T03:15:30.011Z,6.72
2023-03-06T03:17:56.430Z,6.80
2023-03-06T03:20:23.314Z,7.20
2023-03-06T03:22:55.045Z,7.35
2023-03-06T03:25:23.736Z,6.75
2023-03-06T03:27:50.309Z,6.00
2023-03-06T03:30:16.885Z,8.10
2023-03-06T03:32:43.695Z,6.45
2023-03-06T03:35:11.109Z,6.60
2023-03-06T03:37:38.019Z,7.22
2023-03-06T03:40:06.555Z,7.22
2023-03-06T03:42:33.099Z,7.13
2023-03-06T03:44:59.463Z,6.80
2023-03-06T03:47:25.902Z,7.05
2023-03-06T03:49:52.307Z,7.15
2023-03-06T03:52:18.898Z,7.20
2023-03-06T03:54:45.313Z,7.53
2023-03-06T03:57:11.726Z,6.30
2023-03-06T03:59:38.076Z,7.22
2023-03-06T04:02:04.931Z,7.38
2023-03-06T04:04:31.693Z,8.05
2023-03-06T04:06:58.097Z,7.03
2023-03-06T04:09:24.525Z,7.82
2023-03-06T04:11:50.995Z,6.43
2023-03-06T04:14:17.437Z,8.40
2023-03-06T04:16:43.829Z,7.30
2023-03-06T04:19:11.614Z,7.40
2023-03-06T04:21:38.052Z,6.28
2023-03-06T04:24:04.989Z,7.22
2023-03-06T04:26:31.374Z,7.65
2023-03-06T04:28:58.481Z,7.32
2023-03-06T04:31:24.942Z,7.97
2023-03-06T04:33:51.446Z,6.85
2023-03-06T04:36:36.564Z,7.07
2023-03-06T04:39:04.046Z,6.53
2023-03-06T04:41:30.680Z,7.90
2023-03-06T04:43:57.315Z,6.65
2023-03-06T04:46:23.673Z,7.22
2023-03-06T04:48:50.044Z,6.50
2023-03-06T04:51:16.518Z,7.47
2023-03-06T04:53:43.070Z,6.90
2023-03-06T04:56:09.722Z,5.88
2023-03-06T04:58:36.341Z,6.65
2023-03-06T05:01:03.241Z,6.22
2023-03-06T05:03:29.985Z,7.45
2023-03-06T05:05:56.543Z,7.18
2023-03-06T05:08:23.823Z,8.27
2023-03-06T05:10:56.102Z,9.52
2023-03-06T05:13:22.593Z,9.15
2023-03-06T05:15:48.982Z,6.65
2023-03-06T05:18:15.500Z,7.03
2023-03-06T05:20:41.864Z,7.57
2023-03-06T05:23:08.500Z,7.97
2023-03-06T05:25:34.880Z,8.52
2023-03-06T05:28:01.286Z,7.05
2023-03-06T05:30:27.638Z,7.00
2023-03-06T05:32:54.012Z,7.22
2023-03-06T05:35:23.016Z,7.72
2023-03-06T05:37:50.014Z,6.65
2023-03-06T05:40:17.480Z,7.63
2023-03-06T05:42:44.285Z,7.82
2023-03-06T05:45:11.477Z,7.85
2023-03-06T05:47:37.929Z,7.45
2023-03-06T05:50:05.440Z,7.72
2023-03-06T05:52:31.858Z,7.38
2023-03-06T05:54:58.330Z,7.55
2023-03-06T05:57:24.733Z,7.78
2023-03-06T05:59:51.238Z,6.97
2023-03-06T06:02:18.156Z,9.25
2023-03-06T06:04:44.638Z,6.97
2023-03-06T06:07:16.689Z,7.38
2023-03-06T06:09:45.503Z,7.57
2023-03-06T06:12:13.424Z,7.68
2023-03-06T06:14:39.933Z,7.70
2023-03-06T06:17:07.023Z,7.85
2023-03-06T06:19:33.393Z,7.80
2023-03-06T06:22:02.503Z,6.90
2023-03-06T06:24:28.845Z,7.53
2023-03-06T06:26:57.173Z,6.90
2023-03-06T06:29:23.976Z,7.93
2023-03-06T06:31:51.032Z,7.43
2023-03-06T06:34:18.361Z,9.13
2023-03-06T06:36:44.751Z,7.82
2023-03-06T06:39:15.668Z,7.57
2023-03-06T06:41:59.297Z,7.30
2023-03-06T06:44:29.027Z,8.93
2023-03-06T06:47:25.883Z,7.68
2023-03-06T06:49:41.737Z,7.45
2023-03-06T06:52:10.260Z,7.47
2023-03-06T06:54:37.386Z,6.60
2023-03-06T06:57:03.859Z,8.35
2023-03-06T06:59:30.227Z,6.10
2023-03-06T07:01:57.736Z,8.90
2023-03-06T07:04:24.069Z,6.75
2023-03-06T07:06:50.437Z,6.90
2023-03-06T07:09:16.954Z,6.68
2023-03-06T07:11:43.632Z,6.70
2023-03-06T07:14:10.201Z,6.30
2023-03-06T07:16:36.638Z,7.38
2023-03-06T07:19:03.135Z,6.45
2023-03-06T07:21:29.829Z,6.15
2023-03-06T07:23:57.444Z,6.00
2023-03-06T07:26:25.883Z,7.50
2023-03-06T07:28:53.599Z,6.30
2023-03-06T07:31:22.578Z,8.13
2023-03-06T07:33:50.440Z,7.30
2023-03-06T07:36:17.002Z,7.30
2023-03-06T07:38:43.472Z,7.20
2023-03-06T07:41:13.372Z,7.72
2023-03-06T07:43:44.085Z,7.30
2023-03-06T07:46:12.668Z,7.05
2023-03-06T07:48:39.701Z,6.72
2023-03-06T07:51:08.499Z,6.75
2023-03-06T07:53:35.622Z,7.40
2023-03-06T07:56:08.477Z,7.60
2023-03-06T07:58:36.386Z,6.68
2023-03-06T08:01:08.196Z,6.38
2023-03-06T08:03:35.061Z,6.55
2023-03-06T08:06:15.660Z,7.18
2023-03-06T08:08:44.306Z,6.88
2023-03-06T08:11:13.021Z,6.80
2023-03-06T08:13:40.140Z,7.93
2023-03-06T08:16:07.317Z,8.93
2023-03-06T08:18:34.351Z,7.57
2023-03-06T08:21:06.120Z,6.05
2023-03-06T08:23:33.278Z,6.72
2023-03-06T08:26:02.337Z,7.22
2023-03-06T08:28:28.877Z,7.95
2023-03-06T08:30:56.027Z,7.45
2023-03-06T08:33:23.339Z,7.15
2023-03-06T08:35:49.726Z,8.05
2023-03-06T08:38:16.247Z,8.55
2023-03-06T08:40:42.768Z,6.47
2023-03-06T08:43:12.987Z,8.45
2023-03-06T08:45:40.793Z,6.93
2023-03-06T08:48:08.368Z,8.90
2023-03-06T08:50:34.970Z,6.95
2023-03-06T08:53:01.506Z,7.28
2023-03-06T08:55:28.212Z,6.38
2023-03-06T08:57:54.894Z,7.72
2023-03-06T09:00:21.610Z,6.47
2023-03-06T09:02:48.101Z,6.85
2023-03-06T09:05:14.487Z,7.32
2023-03-06T09:07:40.842Z,6.85
2023-03-06T09:10:08.403Z,5.97
2023-03-06T09:12:47.378Z,7.78
2023-03-06T09:15:16.309Z,8.45
2023-03-06T09:17:43.050Z,7.60
2023-03-06T09:20:12.340Z,5.90
2023-03-06T09:22:39.061Z,6.97
2023-03-06T09:25:06.502Z,5.13
2023-03-06T09:27:32.963Z,7.15
2023-03-06T09:29:59.372Z,6.53
2023-03-06T09:32:25.812Z,7.25
2023-03-06T09:34:52.374Z,6.53
2023-03-06T09:37:19.279Z,7.03
2023-03-06T09:39:45.613Z,7.80
2023-03-06T09:42:21.598Z,7.38
2023-03-06T09:44:53.869Z,4.43
2023-03-06T09:47:27.347Z,7.25
2023-03-06T09:50:29.488Z,6.55
2023-03-06T09:53:32.933Z,6.78
2023-03-06T09:56:12.248Z,5.45
2023-03-06T09:58:45.225Z,5.30
2023-03-06T10:01:23.556Z,5.60
2023-03-06T10:04:11.377Z,5.38
2023-03-06T10:06:48.015Z,6.28
2023-03-06T10:09:23.084Z,4.38
2023-03-06T10:12:13.860Z,4.47
2023-03-06T10:14:46.658Z,4.97
2023-03-06T10:17:21.289Z,4.30
2023-03-06T10:19:47.853Z,3.55
2023-03-06T10:22:36.143Z,3.30
2023-03-06T10:25:22.159Z,3.95
2023-03-06T10:27:56.099Z,4.03
2023-03-06T10:30:40.725Z,3.97
2023-03-06T10:33:44.723Z,3.22
2023-03-06T10:36:16.011Z,3.15
2023-03-06T10:41:12.364Z,3.05
2023-03-06T10:44:05.801Z,3.38
2023-03-06T10:46:36.674Z,2.90
2023-03-06T10:49:24.861Z,4.03
2023-03-06T10:52:14.445Z,3.17
2023-03-06T10:54:44.116Z,3.13
2023-03-06T10:57:26.445Z,3.58
2023-03-06T11:00:14.117Z,3.22
2023-03-06T11:02:41.118Z,2.97
2023-03-06T11:05:19.831Z,3.90
2023-03-06T11:08:00.176Z,3.63
2023-03-06T11:10:27.857Z,3.25
2023-03-06T11:13:02.954Z,3.72
2023-03-06T11:15:30.324Z,3.65
2023-03-06T11:18:04.798Z,3.47
2023-03-06T11:20:50.871Z,3.38
2023-03-06T11:23:46.448Z,3.70
2023-03-06T11:26:15.808Z,3.20
2023-03-06T11:29:02.829Z,3.63
2023-03-06T11:31:37.617Z,3.67
2023-03-06T11:34:39.351Z,3.17
2023-03-06T11:37:21.802Z,2.72
2023-03-06T11:40:20.934Z,3.00
2023-03-06T11:43:20.868Z,3.00
2023-03-06T11:45:55.483Z,3.67
2023-03-06T11:48:28.562Z,3.55
2023-03-06T11:51:06.639Z,3.22
2023-03-06T11:53:36.894Z,3.85
2023-03-06T11:56:22.689Z,3.95
2023-03-06T11:59:20.383Z,4.15
2023-03-06T12:02:02.125Z,3.75
2023-03-06T12:04:37.700Z,3.92
2023-03-06T12:07:31.134Z,3.75
2023-03-06T12:10:16.358Z,3.35
2023-03-06T12:13:06.951Z,3.90
2023-03-06T12:15:36.230Z,3.72
2023-03-06T12:18:19.431Z,3.38
2023-03-06T12:21:00.088Z,3.72
2023-03-06T12:24:11.202Z,3.42
2023-03-06T12:26:53.474Z,2.95
2023-03-06T12:29:44.170Z,2.60
2023-03-06T12:32:21.008Z,3.05
2023-03-06T12:35:05.984Z,3.58
2023-03-06T12:37:55.943Z,2.90
2023-03-06T12:40:59.621Z,3.03
2023-03-06T12:43:44.407Z,2.97
2023-03-06T12:46:16.446Z,3.15
2023-03-06T12:48:48.289Z,2.65
2023-03-06T12:51:18.184Z,2.70
2023-03-06T12:53:45.301Z,2.90
2023-03-06T12:56:15.924Z,2.90
2023-03-06T12:58:49.393Z,3.08
2023-03-06T13:01:27.746Z,2.50
2023-03-06T13:04:31.868Z,3.13
2023-03-06T13:07:06.944Z,3.65
2023-03-06T13:09:58.548Z,3.17
2023-03-06T13:12:38.595Z,3.63
2023-03-06T13:15:34.870Z,3.47
2023-03-06T13:18:02.598Z,3.53
2023-03-06T13:20:45.117Z,3.33
2023-03-06T13:23:30.123Z,3.85
2023-03-06T13:25:59.634Z,3.80
2023-03-06T13:28:26.099Z,4.30
2023-03-06T13:30:53.366Z,4.00
2023-03-06T13:33:22.577Z,3.45
2023-03-06T13:35:53.435Z,3.95
2023-03-06T13:38:33.903Z,4.57
2023-03-06T13:41:22.246Z,3.75
2023-03-06T13:46:26.779Z,3.33
2023-03-06T13:49:08.425Z,3.13
2023-03-06T13:51:49.407Z,2.30
2023-03-06T13:54:27.801Z,2.05
2023-03-06T13:57:16.034Z,2.67
2023-03-06T14:00:36.965Z,3.28
2023-03-06T14:03:19.545Z,3.03
2023-03-06T14:05:50.701Z,2.72
2023-03-06T14:08:27.558Z,2.72
2023-03-06T14:11:18.967Z,2.45
2023-03-06T14:13:50.521Z,2.72
2023-03-06T14:16:26.930Z,2.42
2023-03-06T14:18:55.828Z,2.63
2023-03-06T14:21:30.768Z,3.28
2023-03-06T14:24:02.350Z,3.60
2023-03-06T14:26:32.756Z,3.00
2023-03-06T14:29:00.738Z,3.50
2023-03-06T14:31:42.725Z,2.80
2023-03-06T14:34:20.056Z,2.78
2023-03-06T14:36:50.266Z,2.78
2023-03-06T14:39:36.118Z,2.80
2023-03-06T14:42:23.867Z,3.13
2023-03-06T14:45:16.939Z,3.13
2023-03-06T14:47:43.479Z,3.45
2023-03-06T14:50:28.027Z,4.70
2023-03-06T14:53:10.519Z,4.80
2023-03-06T14:55:37.517Z,3.13
2023-03-06T14:58:10.953Z,3.42
2023-03-06T15:00:43.475Z,3.47
2023-03-06T15:03:19.660Z,2.80
2023-03-06T15:05:47.376Z,6.53
2023-03-06T15:08:19.345Z,2.88
2023-03-06T15:11:00.726Z,2.92
2023-03-06T15:13:30.043Z,3.95
2023-03-06T15:16:13.595Z,5.80
2023-03-06T15:18:53.995Z,5.70
2023-03-06T15:21:26.325Z,6.40
2023-03-06T15:23:55.078Z,6.28
2023-03-06T15:26:36.894Z,5.32
2023-03-06T15:29:10.333Z,3.15
2023-03-06T15:31:39.325Z,3.45
2023-03-06T15:34:11.536Z,3.75
2023-03-06T15:36:48.425Z,3.80
2023-03-06T15:39:33.261Z,5.82
2023-03-06T15:42:21.113Z,4.25
2023-03-06T15:45:03.136Z,3.50
2023-03-06T15:47:29.571Z,4.28
2023-03-06T15:49:56.887Z,4.68
2023-03-06T15:52:23.714Z,4.30
2023-03-06T15:54:50.281Z,4.38
2023-03-06T15:57:26.043Z,3.63
2023-03-06T15:59:53.458Z,3.70
2023-03-06T16:02:22.080Z,4.00
2023-03-06T16:04:48.615Z,3.78
2023-03-06T16:07:15.550Z,4.20
2023-03-06T16:09:42.899Z,4.07
2023-03-06T16:12:15.316Z,3.72
2023-03-06T16:14:41.844Z,4.45
2023-03-06T16:17:13.402Z,4.10
2023-03-06T16:19:40.420Z,3.55
2023-03-06T16:22:06.798Z,3.85
2023-03-06T16:24:33.168Z,3.92
2023-03-06T16:27:01.738Z,4.47
2023-03-06T16:29:29.282Z,4.18
2023-03-06T16:32:01.603Z,3.95
2023-03-06T16:34:28.036Z,3.95
2023-03-06T16:36:54.539Z,4.15
2023-03-06T16:39:23.509Z,3.97
2023-03-06T16:41:50.253Z,4.25
2023-03-06T16:44:16.607Z,3.97
2023-03-06T16:46:47.933Z,4.05
2023-03-06T16:51:45.377Z,4.22
2023-03-06T16:54:12.606Z,5.03
2023-03-06T16:56:39.039Z,4.68
2023-03-06T16:59:05.480Z,6.00
2023-03-06T17:01:32.150Z,4.70
2023-03-06T17:03:58.729Z,4.35
2023-03-06T17:06:25.108Z,4.38
2023-03-06T17:08:51.650Z,4.10
2023-03-06T17:11:20.227Z,4.05
2023-03-06T17:13:47.921Z,3.78
2023-03-06T17:16:18.488Z,3.88
2023-03-06T17:18:46.131Z,4.45
2023-03-06T17:21:17.456Z,4.18
2023-03-06T17:23:44.500Z,4.65
2023-03-06T17:26:18.721Z,3.83
2023-03-06T17:28:45.804Z,3.80
2023-03-06T17:31:23.131Z,3.40
2023-03-06T17:33:51.368Z,3.75
2023-03-06T17:36:19.172Z,4.43
2023-03-06T17:38:45.834Z,4.60
2023-03-06T17:41:13.112Z,3.67
2023-03-06T17:43:40.183Z,3.92
2023-03-06T17:46:12.083Z,3.85
2023-03-06T17:48:39.483Z,5.72
2023-03-06T17:51:07.412Z,6.20
2023-03-06T17:53:33.902Z,6.18
2023-03-06T17:56:03.648Z,4.85
2023-03-06T17:58:30.106Z,5.70
2023-03-06T18:00:56.465Z,5.88
2023-03-06T18:03:22.899Z,6.35
2023-03-06T18:06:03.684Z,4.72
2023-03-06T18:08:30.990Z,9.50
2023-03-06T18:11:05.263Z,8.48
2023-03-06T18:13:33.576Z,6.22
2023-03-06T18:16:00.692Z,4.97
2023-03-06T18:18:27.652Z,5.47
2023-03-06T18:20:54.147Z,5.05
2023-03-06T18:23:20.632Z,4.68
2023-03-06T18:25:47.377Z,7.97
2023-03-06T18:28:13.784Z,5.32
2023-03-06T18:30:42.254Z,7.90
2023-03-06T18:33:10.140Z,5.50
2023-03-06T18:35:37.428Z,4.28
2023-03-06T18:38:03.885Z,4.68
2023-03-06T18:40:30.482Z,5.40
2023-03-06T18:42:56.889Z,4.22
2023-03-06T18:45:23.313Z,4.68
2023-03-06T18:47:49.734Z,5.40
2023-03-06T18:50:17.513Z,4.57
2023-03-06T18:52:44.281Z,5.63
2023-03-06T18:55:11.006Z,5.75
2023-03-06T18:57:37.535Z,4.70
2023-03-06T19:00:04.707Z,5.05
2023-03-06T19:02:31.430Z,4.50
2023-03-06T19:04:57.898Z,4.40
2023-03-06T19:07:24.752Z,6.63
2023-03-06T19:09:51.336Z,4.63
2023-03-06T19:12:17.855Z,5.13
2023-03-06T19:14:44.612Z,5.07
2023-03-06T19:17:11.092Z,5.45
2023-03-06T19:19:38.874Z,5.60
2023-03-06T19:22:05.274Z,5.55
2023-03-06T19:24:31.619Z,5.28
2023-03-06T19:26:57.985Z,6.03
2023-03-06T19:29:24.497Z,6.20
2023-03-06T19:31:52.058Z,6.47
2023-03-06T19:34:18.654Z,7.80
2023-03-06T19:36:45.062Z,6.22
2023-03-06T19:39:11.472Z,6.47
2023-03-06T19:41:37.874Z,6.43
2023-03-06T19:44:05.764Z,4.82
2023-03-06T19:46:34.056Z,5.82
2023-03-06T19:49:02.609Z,6.15
2023-03-06T19:51:29.539Z,6.53
2023-03-06T19:53:57.304Z,6.40
2023-03-06T19:56:27.262Z,6.70
2023-03-06T19:58:53.644Z,7.53
2023-03-06T20:01:22.227Z,7.68
2023-03-06T20:03:50.589Z,7.03
2023-03-06T20:06:19.539Z,6.10
2023-03-06T20:08:47.139Z,6.95
2023-03-06T20:11:17.933Z,7.80
2023-03-06T20:13:47.428Z,6.57
2023-03-06T20:16:15.073Z,5.82
2023-03-06T20:18:42.101Z,7.90
2023-03-06T20:21:08.802Z,5.15
2023-03-06T20:23:35.504Z,6.30
2023-03-06T20:26:09.301Z,5.07
2023-03-06T20:28:36.596Z,5.32
2023-03-06T20:31:08.529Z,5.03
2023-03-06T20:33:35.209Z,5.40
2023-03-06T20:36:01.838Z,5.55
2023-03-06T20:38:28.741Z,5.82
2023-03-06T20:40:56.091Z,6.57
2023-03-06T20:43:23.361Z,5.90
2023-03-06T20:46:00.973Z,6.03
2023-03-06T20:48:27.561Z,5.15
2023-03-06T20:51:06.314Z,5.10
2023-03-06T20:53:35.039Z,6.47
2023-03-06T20:56:01.408Z,5.53
2023-03-06T20:58:30.071Z,5.95
2023-03-06T21:00:57.669Z,5.88
2023-03-06T21:03:24.867Z,5.70
2023-03-06T21:05:51.352Z,5.60
2023-03-06T21:08:17.798Z,5.22
2023-03-06T21:10:45.481Z,6.05
2023-03-06T21:13:13.866Z,6.07
2023-03-06T21:15:41.547Z,8.15
2023-03-06T21:18:09.289Z,5.00
2023-03-06T21:20:39.303Z,6.78
2023-03-06T21:23:06.087Z,5.85
2023-03-06T21:25:32.484Z,5.07
2023-03-06T21:28:00.098Z,5.10
2023-03-06T21:30:28.446Z,5.65
2023-03-06T21:32:55.402Z,6.18
2023-03-06T21:35:21.835Z,4.80
2023-03-06T21:37:48.363Z,4.82
2023-03-06T21:40:14.822Z,5.68
2023-03-06T21:42:41.583Z,5.35
2023-03-06T21:45:08.475Z,5.93
2023-03-06T21:47:38.890Z,4.95
2023-03-06T21:50:07.218Z,5.22
2023-03-06T21:52:33.743Z,5.07
2023-03-06T21:55:00.501Z,5.70
2023-03-06T21:57:27.073Z,6.13
2023-03-06T21:59:53.452Z,4.43
2023-03-06T22:02:21.734Z,5.85
2023-03-06T22:04:52.739Z,5.15
2023-03-06T22:07:20.199Z,5.07
2023-03-06T22:09:52.272Z,5.30
2023-03-06T22:12:18.707Z,5.78
2023-03-06T22:14:45.132Z,4.70
2023-03-06T22:17:11.560Z,5.88
2023-03-06T22:19:38.005Z,5.72
2023-03-06T22:22:04.835Z,6.07
2023-03-06T22:24:31.924Z,5.00
2023-03-06T22:26:58.486Z,5.15
2023-03-06T22:29:26.078Z,4.93
2023-03-06T22:31:52.955Z,5.57
2023-03-06T22:34:19.512Z,5.18
2023-03-06T22:36:45.974Z,6.55
2023-03-06T22:39:13.406Z,6.30
2023-03-06T22:41:40.261Z,5.88
2023-03-06T22:44:06.684Z,7.18
2023-03-06T22:46:33.251Z,5.60
2023-03-06T22:49:00.582Z,6.60
2023-03-06T22:51:28.120Z,6.25
2023-03-06T22:53:54.562Z,7.70
2023-03-06T22:56:21.837Z,7.70
2023-03-06T22:58:48.592Z,5.70
2023-03-06T23:01:24.981Z,8.45
2023-03-06T23:04:00.578Z,5.93
2023-03-06T23:06:30.852Z,6.20
2023-03-06T23:09:05.705Z,5.70
2023-03-06T23:11:32.741Z,5.95
2023-03-06T23:13:59.214Z,5.50
2023-03-06T23:16:26.093Z,5.15
2023-03-06T23:18:53.286Z,5.13
2023-03-06T23:21:22.626Z,5.72
2023-03-06T23:23:51.581Z,6.35
2023-03-06T23:26:20.314Z,6.00
2023-03-06T23:28:47.782Z,5.72
2023-03-06T23:31:17.422Z,5.95
2023-03-06T23:33:43.967Z,5.57
2023-03-06T23:36:13.411Z,6.40
2023-03-06T23:38:40.549Z,6.15
2023-03-06T23:41:18.257Z,5.18
2023-03-06T23:43:46.508Z,5.30
2023-03-06T23:46:13.236Z,6.22
2023-03-06T23:48:41.103Z,4.93
2023-03-06T23:51:19.788Z,5.85
2023-03-06T23:53:47.302Z,5.07
2023-03-06T23:56:14.111Z,5.13
2023-03-06T23:58:40.859Z,5.95
